CheckWX is a tool to help pilots better visualize weather data.  It is not intended as a substitute for an official pre-flight weather briefing.

00:40:43 UTC

KAXN METAR
Chandler Field Airport
Alexandria, Minnesota, USA
Current

48 mins ago

KAXN 162353Z AUTO 31003KT 10SM CLR 29/16 A2991 RMK AO2 SLP119 T02940156 10311 20283 56005
Observed
Jul-16 @ 23:53 UTC
Wind
  • 310° at 3 KTS
Visibility
10 SM
Flight Rules
VFR
Cloud Levels
  • Clear skies
Temperature
29°C / 84°F
Dewpoint
16°C / 61°F
Heat Index
29°C / 84°F
Humidity
45%
Altimeter
29.91" Hg
Pressure
1012.92 hPa
Previous

2 hours ago

KAXN 162253Z AUTO 36005KT 10SM CLR 30/16 A2991 RMK AO2 SLP119 T03000156
Observed
Jul-16 @ 22:53 UTC
Wind
  • 360° at 5 KTS
Visibility
10 SM
Flight Rules
VFR
Cloud Levels
  • Clear skies
Temperature
30°C / 86°F
Dewpoint
16°C / 61°F
Heat Index
30°C / 86°F
Humidity
43%
Altimeter
29.91" Hg
Pressure
1012.92 hPa
Previous

3 hours ago

KAXN 162153Z AUTO 33006KT 10SM CLR 28/16 A2992 RMK AO2 SLP123 T02830161
Observed
Jul-16 @ 21:53 UTC
Wind
  • 330° at 6 KTS
Visibility
10 SM
Flight Rules
VFR
Cloud Levels
  • Clear skies
Temperature
28°C / 82°F
Dewpoint
16°C / 61°F
Heat Index
28°C / 82°F
Humidity
48%
Altimeter
29.92" Hg
Pressure
1013.22 hPa